Time;durP1;ratioP1;P1;durP2;ratioP2;P2;SDS_P1;SDS_P2;PMS_P1;PMS_P2;Temp;Humidity;BMP_temperature;BMP_pressure;BME280_temperature;BME280_humidity;BME280_pressure;Samples;Min_cycle;Max_cycle;Signal;HPM_P1;HPM_P2
2023/09/26 00:00:23;;;;;;;0.30;0.20;;;;;;;9.88;96.89;100894.91;4977646;28;20620;-53
2023/09/26 00:02:51;;;;;;;0.40;0.20;;;;;;;9.72;97.42;100903.09;4983648;28;20449;-53
2023/09/26 00:05:19;;;;;;;0.30;0.20;;;;;;;9.76;96.95;100894.22;4974966;28;20903;-53
2023/09/26 00:07:48;;;;;;;0.30;0.20;;;;;;;9.75;97.51;100902.19;4984496;28;20449;-53
2023/09/26 00:10:15;;;;;;;0.40;0.20;;;;;;;9.62;97.14;100901.50;4979315;28;20449;-53
2023/09/26 00:12:42;;;;;;;0.30;0.20;;;;;;;9.62;97.60;100900.63;4989538;28;20524;-53
2023/09/26 00:15:11;;;;;;;0.30;0.20;;;;;;;9.59;98.09;100905.94;4979155;28;20477;-53
2023/09/26 00:17:37;;;;;;;0.30;0.20;;;;;;;9.52;97.30;100899.00;4980539;28;20453;-53
2023/09/26 00:20:21;;;;;;;0.30;0.20;;;;;;;9.56;96.90;100896.25;4985783;28;20505;-53
2023/09/26 00:22:48;;;;;;;0.30;0.20;;;;;;;9.32;98.02;100901.91;4985725;28;20457;-53
2023/09/26 00:25:14;;;;;;;0.40;0.20;;;;;;;9.34;98.01;100897.50;4981078;28;20495;-53
2023/09/26 00:27:41;;;;;;;0.30;0.20;;;;;;;9.23;97.66;100894.97;4979158;28;20454;-53
2023/09/26 00:30:08;;;;;;;0.30;0.20;;;;;;;9.39;97.58;100895.63;4985255;28;20447;-53
2023/09/26 00:32:36;;;;;;;0.30;0.20;;;;;;;9.17;97.90;100893.25;4989257;28;20449;-53
2023/09/26 00:35:04;;;;;;;0.30;0.20;;;;;;;9.22;98.15;100903.84;4985178;28;20508;-53
2023/09/26 00:37:31;;;;;;;0.30;0.20;;;;;;;9.23;97.93;100902.06;4982493;28;20465;-53
2023/09/26 00:39:57;;;;;;;0.30;0.20;;;;;;;9.04;98.49;100904.91;4986157;28;20482;-53
2023/09/26 00:42:24;;;;;;;0.30;0.20;;;;;;;9.21;98.61;100910.03;4988882;28;20928;-53
2023/09/26 00:44:50;;;;;;;0.30;0.20;;;;;;;9.14;98.27;100903.03;4985728;28;20456;-53
2023/09/26 00:47:17;;;;;;;0.30;0.20;;;;;;;9.23;97.38;100902.06;4982493;28;20540;-53
2023/09/26 00:49:43;;;;;;;12.80;8.50;;;;;;;9.23;97.40;100905.59;4985487;28;20446;-53
2023/09/26 00:52:10;;;;;;;0.30;0.20;;;;;;;9.28;96.87;100908.16;4971758;28;20545;-53
2023/09/26 00:54:38;;;;;;;0.30;0.20;;;;;;;9.11;97.04;100906.63;4985851;28;20459;-53
2023/09/26 00:57:05;;;;;;;0.30;0.20;;;;;;;9.24;96.70;100909.13;4982154;28;20922;-53
2023/09/26 00:59:32;;;;;;;0.30;0.20;;;;;;;9.27;96.68;100914.38;4985048;28;20518;-53
2023/09/26 01:01:59;;;;;;;0.30;0.20;;;;;;;9.15;97.15;100915.41;4979511;28;20450;-53
2023/09/26 01:04:27;;;;;;;0.30;0.20;;;;;;;8.92;97.82;100909.53;4984758;28;20461;-54
2023/09/26 01:06:53;;;;;;;0.30;0.20;;;;;;;8.85;98.37;100906.94;4980189;28;20837;-52
2023/09/26 01:09:22;;;;;;;0.30;0.20;;;;;;;9.01;98.52;100912.03;4984137;28;20446;-52
2023/09/26 01:11:49;;;;;;;0.30;0.20;;;;;;;8.97;98.50;100905.91;4990012;28;21006;-53
2023/09/26 01:14:15;;;;;;;0.30;0.20;;;;;;;9.00;97.85;100907.66;4983983;28;20450;-52
2023/09/26 01:16:42;;;;;;;0.30;0.20;;;;;;;8.86;97.79;100902.50;4988263;28;20926;-52
2023/09/26 01:19:08;;;;;;;0.30;0.20;;;;;;;8.78;98.19;100899.09;4986708;28;20548;-52
2023/09/26 01:21:35;;;;;;;0.30;0.20;;;;;;;8.78;99.26;100892.00;4981463;28;20826;-52
2023/09/26 01:24:02;;;;;;;0.30;0.20;;;;;;;8.82;99.05;100890.19;4983303;28;20482;-52
2023/09/26 01:26:38;;;;;;;0.30;0.20;;;;;;;8.79;99.14;100887.59;4988200;28;20553;-53
2023/09/26 01:29:06;;;;;;;0.30;0.20;;;;;;;8.80;98.86;100900.81;4987990;28;20819;-53
2023/09/26 01:31:34;;;;;;;0.30;0.20;;;;;;;8.70;97.97;100885.91;4982030;28;20877;-52
2023/09/26 01:34:04;;;;;;;0.30;0.20;;;;;;;8.76;97.86;100888.47;4981394;28;20466;-52
2023/09/26 01:36:31;;;;;;;0.30;0.20;;;;;;;8.78;97.58;100888.47;4986774;28;20474;-52
2023/09/26 01:38:58;;;;;;;0.30;0.20;;;;;;;8.59;98.22;100891.31;4988001;28;20536;-52
2023/09/26 01:41:25;;;;;;;0.30;0.20;;;;;;;8.66;97.97;100894.78;4982645;28;20580;-52
2023/09/26 01:43:52;;;;;;;0.30;0.20;;;;;;;8.68;97.74;100882.41;4981354;28;20464;-52
2023/09/26 01:46:22;;;;;;;0.30;0.20;;;;;;;8.60;97.80;100887.78;4986082;28;20557;-52
2023/09/26 01:48:49;;;;;;;0.30;0.20;;;;;;;8.63;97.66;100888.63;4987706;28;20552;-52
2023/09/26 01:51:16;;;;;;;0.30;0.20;;;;;;;8.51;98.66;100884.38;4984113;28;20516;-52
2023/09/26 01:53:42;;;;;;;0.50;0.47;;;;;;;8.59;99.11;100883.38;4980955;28;20457;-52
2023/09/26 01:56:08;;;;;;;0.30;0.20;;;;;;;8.67;99.33;100875.34;4984966;28;20502;-51
2023/09/26 01:58:35;;;;;;;0.30;0.20;;;;;;;8.70;98.64;100875.31;4977486;28;20461;-51
2023/09/26 02:01:01;;;;;;;0.30;0.20;;;;;;;8.64;98.81;100880.69;4980452;28;20486;-52
2023/09/26 02:03:28;;;;;;;0.30;0.20;;;;;;;8.57;97.69;100873.69;4987711;28;20458;-52
2023/09/26 02:05:57;;;;;;;0.30;0.20;;;;;;;8.42;98.56;100874.72;4974551;28;20570;-52
2023/09/26 02:08:23;;;;;;;0.30;0.20;;;;;;;8.57;98.56;100871.91;4987653;28;20541;-52
2023/09/26 02:10:50;;;;;;;0.30;0.20;;;;;;;8.48;98.71;100868.47;4983906;28;20854;-51
2023/09/26 02:13:17;;;;;;;0.30;0.20;;;;;;;8.52;98.76;100872.88;4987607;28;20549;-51
2023/09/26 02:15:43;;;;;;;2.27;2.10;;;;;;;8.43;98.46;100872.97;4984064;28;20557;-52
2023/09/26 02:18:10;;;;;;;0.30;0.20;;;;;;;8.28;98.72;100877.47;4980775;28;20453;-51
2023/09/26 02:20:36;;;;;;;0.30;0.20;;;;;;;8.27;99.33;100874.84;4983331;28;20987;-51
2023/09/26 02:23:04;;;;;;;0.30;0.20;;;;;;;8.35;99.09;100872.13;4987044;28;21007;-52
2023/09/26 02:25:31;;;;;;;0.30;0.20;;;;;;;8.31;99.41;100871.28;4984376;28;20531;-52
2023/09/26 02:27:57;;;;;;;0.30;0.20;;;;;;;8.26;98.46;100870.44;4980311;28;20460;-51
2023/09/26 02:30:26;;;;;;;0.30;0.20;;;;;;;8.36;98.65;100874.81;4982933;28;20454;-52
2023/09/26 02:32:53;;;;;;;0.30;0.20;;;;;;;8.26;97.24;100878.41;4987120;28;20454;-53
2023/09/26 02:35:20;;;;;;;0.30;0.20;;;;;;;8.11;98.26;100867.94;4984878;28;20473;-52
2023/09/26 02:37:47;;;;;;;0.30;0.20;;;;;;;8.19;99.69;100877.56;4980293;28;20829;-52
2023/09/26 02:40:13;;;;;;;0.30;0.20;;;;;;;8.12;98.84;100873.22;4975983;28;20497;-52
2023/09/26 02:42:43;;;;;;;0.30;0.20;;;;;;;8.16;99.30;100874.06;4984939;28;20461;-52
2023/09/26 02:45:12;;;;;;;0.30;0.20;;;;;;;8.26;99.61;100866.03;4985636;28;20469;-52
2023/09/26 02:47:39;;;;;;;0.30;0.20;;;;;;;8.14;98.17;100871.44;4980086;28;21033;-52
2023/09/26 02:50:07;;;;;;;0.30;0.20;;;;;;;8.24;99.40;100864.28;4980789;28;20458;-52
2023/09/26 02:52:34;;;;;;;0.30;0.20;;;;;;;8.14;99.69;100862.63;4992158;28;20520;-51
2023/09/26 02:55:01;;;;;;;0.30;0.20;;;;;;;8.24;99.46;100851.06;4980390;28;20459;-52
2023/09/26 02:57:28;;;;;;;0.30;0.20;;;;;;;8.29;98.73;100859.81;4980074;28;20460;-52
2023/09/26 02:59:55;;;;;;;0.30;0.20;;;;;;;8.23;98.12;100857.25;4979967;28;20568;-51
2023/09/26 03:02:21;;;;;;;0.30;0.20;;;;;;;8.29;98.38;100862.47;4980469;28;20894;-52
2023/09/26 03:04:48;;;;;;;0.30;0.20;;;;;;;8.25;97.45;100866.06;4979471;28;20516;-52
2023/09/26 03:07:15;;;;;;;0.30;0.20;;;;;;;8.16;98.43;100872.31;4980860;28;20449;-52
2023/09/26 03:09:43;;;;;;;0.30;0.20;;;;;;;8.11;98.98;100867.94;4979662;28;20977;-52
2023/09/26 03:12:09;;;;;;;0.30;0.20;;;;;;;8.11;98.08;100862.66;4990217;28;20461;-52
2023/09/26 03:14:36;;;;;;;0.30;0.20;;;;;;;8.17;98.05;100855.50;4979717;28;20614;-52
2023/09/26 03:17:05;;;;;;;0.30;0.20;;;;;;;8.13;97.73;100859.09;4985429;28;20540;-51
2023/09/26 03:19:32;;;;;;;0.30;0.20;;;;;;;8.21;97.51;100865.19;4986279;28;20456;-52
2023/09/26 03:21:58;;;;;;;0.30;0.20;;;;;;;8.09;97.71;100865.31;4964344;28;20481;-51
2023/09/26 03:24:25;;;;;;;0.30;0.20;;;;;;;7.94;98.21;100855.72;4979479;28;20458;-52
2023/09/26 03:26:51;;;;;;;0.30;0.20;;;;;;;8.05;98.58;100852.09;4984753;28;20502;-52
2023/09/26 03:29:18;;;;;;;0.30;0.20;;;;;;;7.96;97.97;100861.03;4986237;28;20966;-53
2023/09/26 03:31:45;;;;;;;0.30;0.20;;;;;;;7.88;97.71;100850.50;4981368;28;20541;-52
2023/09/26 03:34:12;;;;;;;0.50;0.50;;;;;;;7.80;97.46;100856.72;4979699;28;20501;-52
2023/09/26 03:36:40;;;;;;;1.27;1.17;;;;;;;7.80;97.85;100854.97;4984014;28;20473;-52
2023/09/26 03:39:06;;;;;;;0.30;0.20;;;;;;;7.90;97.16;100858.41;4986188;28;20458;-51
2023/09/26 03:41:33;;;;;;;0.30;0.20;;;;;;;7.78;97.85;100862.03;4982201;28;20493;-52
2023/09/26 03:43:59;;;;;;;0.30;0.20;;;;;;;7.77;97.90;100855.00;4979513;28;20450;-52
2023/09/26 03:46:26;;;;;;;0.30;0.20;;;;;;;7.86;98.60;100854.94;4983290;28;21130;-51
2023/09/26 03:48:52;;;;;;;0.30;0.20;;;;;;;7.82;98.04;100854.97;4986083;28;20465;-51
2023/09/26 03:51:19;;;;;;;0.30;0.20;;;;;;;7.68;98.22;100852.44;4982719;28;20546;-51
2023/09/26 03:53:45;;;;;;;0.30;0.20;;;;;;;7.66;97.89;100855.06;4979159;28;20868;-51
2023/09/26 03:56:12;;;;;;;0.30;0.20;;;;;;;7.66;97.93;100848.91;4983026;28;20521;-52
2023/09/26 03:58:40;;;;;;;0.30;0.20;;;;;;;7.67;97.78;100846.22;4986076;28;20454;-52
2023/09/26 04:01:16;;;;;;;0.30;0.20;;;;;;;7.50;98.21;100840.19;4972939;28;20490;-52
2023/09/26 04:03:46;;;;;;;0.30;0.20;;;;;;;7.60;97.52;100841.03;4986601;28;20536;-52
2023/09/26 04:06:13;;;;;;;0.30;0.20;;;;;;;7.58;97.54;100841.03;4976621;28;20517;-52
2023/09/26 04:08:39;;;;;;;0.30;0.20;;;;;;;8.70;96.54;100838.19;4989946;28;20476;-52
2023/09/26 04:11:13;;;;;;;0.30;0.20;;;;;;;8.05;96.25;100836.22;4986982;28;20441;-52
2023/09/26 04:13:39;;;;;;;0.30;0.20;;;;;;;7.99;96.08;100842.47;4983012;28;20455;-52
2023/09/26 04:16:06;;;;;;;0.30;0.20;;;;;;;8.02;97.14;100837.13;4982942;28;20466;-53
2023/09/26 04:18:32;;;;;;;0.30;0.20;;;;;;;7.78;97.77;100834.69;4989121;28;20461;-52
2023/09/26 04:21:03;;;;;;;0.30;0.20;;;;;;;7.77;98.11;100836.47;4989513;28;20920;-53
2023/09/26 04:23:29;;;;;;;0.30;0.20;;;;;;;7.81;97.94;100837.31;4984113;28;20449;-53
2023/09/26 04:25:56;;;;;;;0.30;0.20;;;;;;;7.90;98.29;100830.19;4981451;28;20478;-53
2023/09/26 04:28:23;;;;;;;0.30;0.20;;;;;;;7.78;98.26;100832.94;4984341;28;20537;-52
2023/09/26 04:30:49;;;;;;;0.30;0.20;;;;;;;7.63;98.02;100833.94;4982538;28;20456;-53
2023/09/26 04:33:16;;;;;;;0.30;0.20;;;;;;;7.76;98.84;100833.84;4987465;28;20489;-52
2023/09/26 04:35:43;;;;;;;0.30;0.20;;;;;;;7.82;99.11;100845.25;4988851;28;21010;-53
2023/09/26 04:38:09;;;;;;;0.30;0.20;;;;;;;7.86;98.45;100852.28;4984694;28;20824;-53
2023/09/26 04:40:36;;;;;;;0.30;0.20;;;;;;;7.80;98.50;100848.78;4982497;28;20536;-52
2023/09/26 04:43:04;;;;;;;0.30;0.20;;;;;;;7.85;98.17;100847.00;4986766;28;20486;-53
2023/09/26 04:45:31;;;;;;;0.30;0.20;;;;;;;7.80;97.98;100841.72;4988693;28;20482;-52
2023/09/26 04:48:01;;;;;;;0.30;0.20;;;;;;;7.73;98.45;100838.28;4968375;28;20515;-52
2023/09/26 04:50:29;;;;;;;0.83;0.83;;;;;;;7.59;98.42;100842.78;4982243;28;20504;-53
2023/09/26 04:52:56;;;;;;;0.30;0.20;;;;;;;7.63;98.13;100841.00;4985075;28;20970;-53
2023/09/26 04:55:23;;;;;;;0.30;0.20;;;;;;;7.64;98.52;100850.69;4988622;28;20475;-52
2023/09/26 04:57:50;;;;;;;0.30;0.20;;;;;;;7.67;98.43;100848.00;4986675;28;20449;-53
2023/09/26 05:00:17;;;;;;;0.30;0.20;;;;;;;7.66;98.79;100849.78;4977490;28;21013;-53
2023/09/26 05:02:45;;;;;;;0.30;0.20;;;;;;;7.90;98.23;100845.19;4986845;28;20453;-53
2023/09/26 05:05:12;;;;;;;0.30;0.20;;;;;;;7.81;98.47;100842.59;4961057;28;20471;-53
2023/09/26 05:07:43;;;;;;;0.30;0.20;;;;;;;7.86;98.83;100846.09;4986518;28;20529;-52
2023/09/26 05:10:11;;;;;;;0.30;0.20;;;;;;;7.80;98.48;100848.78;4981652;28;20454;-53
2023/09/26 05:12:40;;;;;;;0.30;0.20;;;;;;;7.85;98.23;100845.22;4992103;28;20943;-53
2023/09/26 05:15:12;;;;;;;0.30;0.20;;;;;;;7.81;97.80;100848.81;4980849;28;20485;-52
2023/09/26 05:17:52;;;;;;;0.97;0.97;;;;;;;7.85;98.60;100849.66;4982621;28;20458;-54
2023/09/26 05:20:19;;;;;;;0.30;0.20;;;;;;;7.82;97.51;100850.56;4971825;28;20453;-53
2023/09/26 05:22:48;;;;;;;0.30;0.20;;;;;;;7.79;98.17;100855.84;4981719;28;20533;-53
2023/09/26 05:25:15;;;;;;;0.30;0.20;;;;;;;7.82;98.80;100844.38;4986312;28;20480;-52
2023/09/26 05:27:43;;;;;;;0.30;0.20;;;;;;;7.83;98.30;100849.66;4988358;28;20478;-53
2023/09/26 05:30:11;;;;;;;0.30;0.20;;;;;;;7.84;98.26;100848.78;4983902;28;20457;-53
2023/09/26 05:32:39;;;;;;;0.30;0.20;;;;;;;7.83;97.84;100854.97;4981482;28;20501;-55
2023/09/26 05:35:07;;;;;;;0.30;0.20;;;;;;;7.88;98.82;100860.19;4985604;28;20478;-53
2023/09/26 05:37:34;;;;;;;0.30;0.20;;;;;;;7.89;98.39;100857.53;4988033;28;20486;-53
2023/09/26 05:40:04;;;;;;;0.30;0.20;;;;;;;7.80;98.92;100857.59;4970505;28;20941;-53
2023/09/26 05:42:36;;;;;;;0.30;0.20;;;;;;;7.81;98.22;100863.78;4959760;28;20824;-53
2023/09/26 05:45:05;;;;;;;0.30;0.20;;;;;;;7.82;98.71;100861.16;4985852;28;20473;-52
2023/09/26 05:47:32;;;;;;;0.30;0.20;;;;;;;7.79;99.01;100869.09;4967912;28;20453;-52
2023/09/26 05:50:00;;;;;;;0.30;0.20;;;;;;;7.78;99.29;100866.44;4983065;28;20451;-53
2023/09/26 05:52:27;;;;;;;0.30;0.20;;;;;;;8.09;99.50;100864.44;4979952;28;20529;-53
2023/09/26 05:54:53;;;;;;;0.30;0.20;;;;;;;8.01;99.25;100856.56;4982337;28;20454;-53
2023/09/26 05:57:20;;;;;;;0.30;0.20;;;;;;;7.97;99.98;100855.72;4987583;28;20509;-53
2023/09/26 05:59:47;;;;;;;0.30;0.20;;;;;;;8.20;99.20;100860.78;4983643;28;20453;-53
2023/09/26 06:02:16;;;;;;;0.30;0.20;;;;;;;8.33;99.75;100862.41;4980427;28;20496;-53
2023/09/26 06:04:44;;;;;;;0.40;0.30;;;;;;;8.43;99.27;100865.00;4981175;28;20465;-52
2023/09/26 06:07:11;;;;;;;0.30;0.20;;;;;;;8.55;99.35;100864.88;4968062;28;20466;-52
2023/09/26 06:09:38;;;;;;;0.30;0.20;;;;;;;8.56;99.60;100870.16;4981031;28;20534;-53
2023/09/26 06:12:18;;;;;;;0.30;0.20;;;;;;;8.71;100.00;100866.44;4991158;28;20453;-53
2023/09/26 06:14:46;;;;;;;0.30;0.20;;;;;;;8.85;100.00;100861.88;4991817;28;20537;-53
2023/09/26 06:17:13;;;;;;;0.30;0.20;;;;;;;8.94;100.00;100862.66;4983083;28;20454;-53
2023/09/26 06:19:44;;;;;;;0.30;0.20;;;;;;;9.11;100.00;100871.25;4991319;28;20457;-53
2023/09/26 06:22:11;;;;;;;0.30;0.20;;;;;;;9.27;99.92;100870.16;4983934;28;20497;-53
2023/09/26 06:24:42;;;;;;;0.30;0.20;;;;;;;9.31;99.52;100869.19;4980741;28;20457;-53
2023/09/26 06:27:08;;;;;;;0.30;0.20;;;;;;;9.38;99.84;100876.19;4982988;28;20545;-53
2023/09/26 06:29:41;;;;;;;0.30;0.20;;;;;;;9.47;99.78;100878.72;4987201;28;21004;-53
2023/09/26 06:32:08;;;;;;;0.30;0.20;;;;;;;9.59;99.78;100871.44;4985342;28;20496;-54
2023/09/26 06:34:39;;;;;;;0.30;0.20;;;;;;;9.73;99.43;100873.03;4980511;28;20450;-52
2023/09/26 06:37:06;;;;;;;0.30;0.20;;;;;;;9.80;99.06;100876.44;4983338;28;20545;-52
2023/09/26 06:39:32;;;;;;;0.30;0.20;;;;;;;9.89;98.69;100873.66;4986861;28;20839;-51
2023/09/26 06:41:59;;;;;;;0.30;0.20;;;;;;;9.93;98.37;100874.47;4986546;28;20511;-52
2023/09/26 06:44:25;;;;;;;0.30;0.20;;;;;;;10.06;98.49;100874.22;4961231;28;20458;-51
2023/09/26 06:46:52;;;;;;;0.30;0.20;;;;;;;10.19;97.43;100872.25;4986572;28;20752;-52
2023/09/26 06:49:19;;;;;;;0.30;0.20;;;;;;;10.22;98.06;100871.34;4980420;28;20533;-52
2023/09/26 06:51:45;;;;;;;0.30;0.20;;;;;;;10.32;98.61;100875.59;4980308;28;20529;-52
2023/09/26 06:54:13;;;;;;;0.30;0.20;;;;;;;10.36;97.71;100879.94;4969075;28;20450;-53
2023/09/26 06:56:39;;;;;;;0.30;0.30;;;;;;;10.44;98.02;100874.50;4986476;28;20480;-51
2023/09/26 06:59:08;;;;;;;0.30;0.20;;;;;;;10.59;97.76;100883.06;4981032;28;20537;-51
2023/09/26 07:01:35;;;;;;;0.30;0.20;;;;;;;10.71;97.89;100865.13;4976111;28;20577;-51
2023/09/26 07:04:02;;;;;;;0.30;0.20;;;;;;;10.58;98.44;100870.69;4985395;28;20450;-51
2023/09/26 07:06:30;;;;;;;0.30;0.20;;;;;;;10.76;97.84;100874.75;4998158;23;21017;-52
2023/09/26 07:08:57;;;;;;;0.30;0.20;;;;;;;10.97;97.82;100871.66;5004522;28;20536;-52
2023/09/26 07:11:24;;;;;;;0.30;0.20;;;;;;;11.07;98.32;100872.31;5004956;28;20538;-52
2023/09/26 07:13:50;;;;;;;0.30;0.20;;;;;;;11.09;97.72;100870.50;5004050;28;20544;-52
2023/09/26 07:16:17;;;;;;;0.30;0.20;;;;;;;11.21;97.34;100854.28;5007939;28;20499;-52
2023/09/26 07:18:44;;;;;;;0.30;0.20;;;;;;;11.32;97.83;100863.81;5012582;28;20483;-52
2023/09/26 07:21:10;;;;;;;0.30;0.20;;;;;;;11.45;97.77;100855.50;5012219;28;20515;-52
2023/09/26 07:23:37;;;;;;;0.30;0.20;;;;;;;11.56;97.30;100861.47;5012369;28;20899;-52
2023/09/26 07:26:05;;;;;;;0.40;0.20;;;;;;;11.63;96.98;100856.84;5011993;28;20559;-52
2023/09/26 07:28:32;;;;;;;0.30;0.20;;;;;;;11.83;96.29;100856.44;5012632;28;20445;-52
2023/09/26 07:30:59;;;;;;;0.40;0.20;;;;;;;11.80;97.26;100854.72;5012385;28;20539;-52
2023/09/26 07:33:26;;;;;;;0.30;0.20;;;;;;;11.93;97.45;100857.09;5012628;28;20460;-52
2023/09/26 07:35:52;;;;;;;0.30;0.20;;;;;;;12.08;96.73;100857.56;5012220;28;20472;-52
2023/09/26 07:38:19;;;;;;;0.40;0.20;;;;;;;12.06;97.01;100859.41;4995078;28;20452;-52
2023/09/26 07:40:45;;;;;;;0.40;0.20;;;;;;;12.09;97.37;100861.97;5005633;28;20484;-52
2023/09/26 07:43:13;;;;;;;0.30;0.20;;;;;;;12.30;96.43;100860.53;5016450;28;20476;-52
2023/09/26 07:45:40;;;;;;;0.30;0.20;;;;;;;12.55;95.85;100867.88;5015918;28;20468;-52
2023/09/26 07:48:06;;;;;;;0.30;0.20;;;;;;;12.58;96.04;100860.66;5016271;28;20463;-52
2023/09/26 07:50:33;;;;;;;0.40;0.30;;;;;;;12.76;95.93;100864.63;4998587;28;20448;-52
2023/09/26 07:53:02;;;;;;;0.40;0.20;;;;;;;12.84;95.10;100862.59;5016140;28;20539;-52
2023/09/26 07:55:28;;;;;;;0.30;0.20;;;;;;;12.92;95.18;100859.72;5015731;28;20476;-52
2023/09/26 07:57:55;;;;;;;0.40;0.20;;;;;;;12.97;95.88;100857.78;5016234;28;20456;-52
2023/09/26 08:00:22;;;;;;;0.40;0.20;;;;;;;12.96;94.99;100869.38;5007942;28;20451;-52
2023/09/26 08:02:48;;;;;;;0.40;0.20;;;;;;;13.11;95.07;100860.91;5007042;28;20528;-52
2023/09/26 08:05:15;;;;;;;0.40;0.20;;;;;;;13.36;94.10;100854.88;5011598;28;20456;-52
2023/09/26 08:07:43;;;;;;;0.40;0.20;;;;;;;13.36;93.40;100858.41;5007019;28;20463;-53
2023/09/26 08:10:09;;;;;;;0.40;0.20;;;;;;;13.44;92.67;100869.75;5011764;28;20483;-52
2023/09/26 08:12:36;;;;;;;0.40;0.20;;;;;;;13.74;92.54;100857.22;5013306;28;20488;-52
2023/09/26 08:15:03;;;;;;;0.40;0.20;;;;;;;13.85;92.25;100859.53;5015636;28;20457;-52
2023/09/26 08:17:29;;;;;;;0.40;0.20;;;;;;;13.99;91.96;100862.63;5015627;28;20559;-52
2023/09/26 08:19:56;;;;;;;0.40;0.20;;;;;;;14.44;91.29;100859.31;5015473;28;20444;-52
2023/09/26 08:22:22;;;;;;;0.40;0.20;;;;;;;14.34;90.87;100855.19;5015321;28;20499;-52
2023/09/26 08:24:49;;;;;;;0.40;0.20;;;;;;;14.28;90.67;100850.94;5015477;28;20452;-52
2023/09/26 08:27:16;;;;;;;0.40;0.20;;;;;;;14.20;91.47;100844.97;5015522;28;20972;-52
2023/09/26 08:29:43;;;;;;;0.40;0.20;;;;;;;14.40;91.63;100836.25;5015470;28;20480;-52
2023/09/26 08:32:09;;;;;;;0.40;0.20;;;;;;;14.56;90.19;100839.28;5015478;28;20448;-52
2023/09/26 08:34:36;;;;;;;0.40;0.20;;;;;;;14.61;90.39;100830.16;5015109;28;20984;-52
2023/09/26 08:37:03;;;;;;;0.40;0.20;;;;;;;14.86;90.79;100832.81;5015071;28;20480;-52
2023/09/26 08:39:29;;;;;;;0.40;0.20;;;;;;;14.97;89.72;100824.38;5012085;28;20946;-52
2023/09/26 08:41:58;;;;;;;0.40;0.20;;;;;;;15.11;89.41;100832.75;5008598;28;20492;-52
2023/09/26 08:44:25;;;;;;;0.40;0.20;;;;;;;15.30;89.64;100828.41;5015361;28;20831;-52
2023/09/26 08:46:52;;;;;;;0.40;0.20;;;;;;;15.58;88.68;100821.94;5014891;28;20473;-52
2023/09/26 08:49:19;;;;;;;0.40;0.20;;;;;;;15.77;88.75;100822.13;5014942;28;20461;-52
2023/09/26 08:51:46;;;;;;;0.40;0.20;;;;;;;15.83;88.57;100822.72;5013573;28;20979;-52
2023/09/26 08:54:13;;;;;;;0.40;0.20;;;;;;;15.84;88.64;100823.59;5015201;28;20449;-52
2023/09/26 08:56:39;;;;;;;0.40;0.20;;;;;;;15.92;88.65;100819.66;5014795;28;20511;-52
2023/09/26 08:59:09;;;;;;;0.40;0.20;;;;;;;16.05;88.10;100822.72;5015111;28;20457;-52
2023/09/26 09:01:36;;;;;;;0.40;0.20;;;;;;;16.33;87.74;100821.50;4997812;28;20496;-52
2023/09/26 09:04:03;;;;;;;0.40;0.20;;;;;;;16.58;87.04;100815.00;5014562;28;20463;-52
2023/09/26 09:06:29;;;;;;;0.40;0.20;;;;;;;16.50;87.21;100808.22;5001058;28;20473;-52
2023/09/26 09:09:07;;;;;;;0.40;0.20;;;;;;;16.86;86.80;100811.97;5014614;28;20828;-52
2023/09/26 09:11:34;;;;;;;0.40;0.20;;;;;;;16.91;87.84;100811.72;5011725;28;20453;-52
2023/09/26 09:14:00;;;;;;;0.40;0.20;;;;;;;17.22;86.55;100807.59;5014642;28;20475;-52
2023/09/26 09:16:26;;;;;;;0.40;0.20;;;;;;;17.30;85.30;100814.38;5014693;28;20477;-52
2023/09/26 09:18:58;;;;;;;0.40;0.20;;;;;;;17.52;85.21;100802.56;5014422;28;20460;-52
2023/09/26 09:21:33;;;;;;;2.40;2.20;;;;;;;17.63;84.53;100808.28;5014546;28;20570;-52
2023/09/26 09:24:01;;;;;;;0.40;0.20;;;;;;;17.64;84.58;100801.94;5014473;28;20449;-53
2023/09/26 09:26:32;;;;;;;0.40;0.30;;;;;;;17.68;84.93;100803.53;5014136;28;20450;-53
2023/09/26 09:29:17;;;;;;;0.40;0.20;;;;;;;18.02;83.50;100798.25;5014096;28;20491;-52
2023/09/26 09:31:44;;;;;;;0.40;0.20;;;;;;;17.87;84.64;100801.72;4991571;28;20464;-52
2023/09/26 09:34:11;;;;;;;0.40;0.20;;;;;;;17.95;83.61;100798.63;5014214;28;20452;-52
2023/09/26 09:36:38;;;;;;;0.40;0.20;;;;;;;18.00;83.12;100800.16;5014174;28;20560;-52
2023/09/26 09:39:08;;;;;;;0.40;0.20;;;;;;;18.35;82.75;100792.91;5013856;28;20511;-53
2023/09/26 09:41:41;;;;;;;0.40;0.20;;;;;;;18.71;81.84;100783.88;4993673;28;20877;-52
2023/09/26 09:44:08;;;;;;;0.40;0.20;;;;;;;18.75;80.39;100795.34;5014058;28;20452;-52
2023/09/26 09:46:38;;;;;;;0.40;0.20;;;;;;;18.59;80.30;100785.34;5013890;28;20535;-53
2023/09/26 09:49:10;;;;;;;0.40;0.20;;;;;;;18.62;79.56;100777.09;5013781;28;20521;-52
2023/09/26 09:51:42;;;;;;;0.40;0.30;;;;;;;18.66;79.41;100780.56;5013925;28;20441;-53
2023/09/26 09:54:18;;;;;;;0.40;0.20;;;;;;;19.17;79.19;100789.41;5013635;28;20979;-52
2023/09/26 09:56:48;;;;;;;0.40;0.20;;;;;;;19.32;79.19;100793.06;5013751;28;20575;-53
2023/09/26 09:59:16;;;;;;;0.40;0.20;;;;;;;19.15;79.37;100781.41;5013855;28;20539;-53
2023/09/26 10:01:49;;;;;;;0.40;0.20;;;;;;;19.35;79.19;100776.72;4994871;28;20909;-52
2023/09/26 10:04:18;;;;;;;0.40;0.20;;;;;;;19.05;79.51;100773.91;5013564;28;20498;-52
2023/09/26 10:06:45;;;;;;;0.40;0.20;;;;;;;19.28;79.49;100769.94;5000108;28;20823;-52
2023/09/26 10:09:14;;;;;;;0.40;0.20;;;;;;;19.31;78.55;100772.44;5013011;28;21015;-52
2023/09/26 10:11:42;;;;;;;0.40;0.20;;;;;;;19.28;78.53;100768.09;5008130;28;20823;-52
2023/09/26 10:14:21;;;;;;;0.40;0.20;;;;;;;19.52;78.01;100768.53;5013529;28;20423;-52
2023/09/26 10:16:49;;;;;;;0.40;0.20;;;;;;;19.66;77.69;100760.53;5013202;28;20472;-52
2023/09/26 10:19:16;;;;;;;0.40;0.20;;;;;;;20.02;77.14;100759.31;5013507;28;20544;-52
2023/09/26 10:21:43;;;;;;;0.40;0.20;;;;;;;19.68;77.04;100757.75;5013233;28;20515;-52
2023/09/26 10:24:09;;;;;;;0.40;0.20;;;;;;;19.99;77.22;100751.38;5013226;28;20423;-52
2023/09/26 10:26:49;;;;;;;0.40;0.20;;;;;;;20.21;75.80;100749.13;5013085;28;20943;-52
2023/09/26 10:29:27;;;;;;;0.40;0.20;;;;;;;20.11;75.87;100748.81;5013050;28;20445;-52
2023/09/26 10:31:56;;;;;;;0.40;0.20;;;;;;;20.11;76.01;100747.94;5013403;28;20486;-52
2023/09/26 10:34:24;;;;;;;0.40;0.20;;;;;;;20.34;76.44;100744.72;5013158;28;20424;-52
2023/09/26 10:37:15;;;;;;;0.40;0.20;;;;;;;20.40;75.87;100728.13;5013085;28;20472;-52
2023/09/26 10:39:43;;;;;;;0.40;0.27;;;;;;;20.63;75.84;100733.94;5008309;28;20442;-52
2023/09/26 10:42:16;;;;;;;0.40;0.20;;;;;;;20.73;75.39;100732.41;5007583;28;20492;-52
2023/09/26 10:45:02;;;;;;;0.40;0.20;;;;;;;20.94;73.91;100728.31;5012831;28;20976;-52
2023/09/26 10:47:29;;;;;;;0.40;0.30;;;;;;;21.16;73.78;100727.78;5012846;28;20476;-52
2023/09/26 10:49:56;;;;;;;0.50;0.20;;;;;;;21.07;72.97;100724.81;5012864;28;20499;-52
2023/09/26 10:52:49;;;;;;;0.50;0.20;;;;;;;21.27;72.74;100727.13;4974587;28;20444;-53
2023/09/26 10:55:16;;;;;;;0.40;0.20;;;;;;;21.54;72.12;100724.44;5012871;28;20468;-52
2023/09/26 10:57:44;;;;;;;0.50;0.30;;;;;;;21.54;72.81;100724.44;5012885;28;20449;-52
2023/09/26 11:00:13;;;;;;;0.40;0.20;;;;;;;21.41;71.79;100721.66;5006053;28;20541;-52
2023/09/26 11:02:42;;;;;;;0.40;0.20;;;;;;;21.22;71.97;100727.38;5002115;28;20930;-52
2023/09/26 11:05:11;;;;;;;0.40;0.20;;;;;;;21.11;72.85;100723.66;5009377;28;20522;-52
2023/09/26 11:07:39;;;;;;;0.40;0.20;;;;;;;21.36;71.92;100720.22;5003207;28;20435;-52
2023/09/26 11:10:12;;;;;;;0.50;0.20;;;;;;;21.43;71.36;100711.63;5008720;28;20452;-52
2023/09/26 11:12:40;;;;;;;0.40;0.20;;;;;;;21.50;71.99;100706.66;4992457;28;20476;-52
2023/09/26 11:15:08;;;;;;;0.40;0.20;;;;;;;21.77;71.77;100703.91;5011911;28;20452;-52
2023/09/26 11:17:36;;;;;;;0.50;0.20;;;;;;;21.80;71.22;100706.44;5012420;28;20514;-52
2023/09/26 11:20:05;;;;;;;0.47;0.20;;;;;;;21.89;71.13;100708.47;5012756;28;20427;-53
2023/09/26 11:22:52;;;;;;;0.40;0.20;;;;;;;22.24;70.23;100699.78;5012392;28;20897;-52
2023/09/26 11:25:18;;;;;;;0.40;0.20;;;;;;;22.22;69.95;100697.19;4989944;28;20815;-52
2023/09/26 11:27:46;;;;;;;0.40;0.20;;;;;;;22.04;68.59;100695.72;5012155;28;20944;-52
2023/09/26 11:30:17;;;;;;;0.43;0.30;;;;;;;22.08;69.52;100698.16;5012577;28;20539;-52
2023/09/26 11:32:48;;;;;;;0.40;0.20;;;;;;;22.26;69.54;100697.84;5012590;28;20584;-52